M I D A S
Marine Information and Data Acquisition System
Tripno 1716 of the Zeeleeuw from 2009-06-25 07:14:08 to 2009-06-25 13:53:43
Back to CruiseResearch ActivitiesStationsMapUnderway DataData graphs

EquipmentUnitsComment
TimeDGPSUTC
LatitudeDGPSDM.mWGS84
LongitudeDGPSDM.mWGS84
HeadingGyrodeg 
SOGDGPSknotsSpeed over ground
COGDGPSdegCourse over ground
DepthEcho soundermeters200 kHz
Missing or incorrect values are displayed as -999
Navigation data collected by the RV Zeeleeuw from 2009-06-25 07:08:44 to 2009-06-25 14:03:05
                                                                                    Next 1000 lines
Time Latitude Longitude Heading SOG COG Depth
2009-06-25 07:08:53 51°13.662 2°55.956 113.5 0.9 289 4.8
2009-06-25 07:08:59 51°13.663 2°55.953 113.5 1.2 296 4.9
2009-06-25 07:09:04 51°13.664 2°55.951 113.8 1.4 293 4.9
2009-06-25 07:09:09 51°13.665 2°55.947 114 1.6 294 4.9
2009-06-25 07:09:15 51°13.666 2°55.943 114.3 1.8 295 -999
2009-06-25 07:09:20 51°13.668 2°55.939 114.7 2.1 296 -999
2009-06-25 07:09:26 51°13.669 2°55.933 115 2.3 296 -999
2009-06-25 07:09:32 51°13.671 2°55.928 115 2.4 296 -999
2009-06-25 07:09:37 51°13.673 2°55.923 114.9 2.4 297 -999
2009-06-25 07:09:43 51°13.674 2°55.917 114.9 2.5 297 -999
2009-06-25 07:09:48 51°13.676 2°55.912 114.9 2.6 297 -999
2009-06-25 07:09:53 51°13.678 2°55.907 114.7 2.7 297 -999
2009-06-25 07:09:57 51°13.679 2°55.902 114 2.8 295 -999
2009-06-25 07:10:03 51°13.681 2°55.895 112.6 2.9 295 -999
2009-06-25 07:10:08 51°13.683 2°55.889 111.3 3 291 -999
2009-06-25 07:10:13 51°13.684 2°55.882 110.1 3.1 291 -999
2009-06-25 07:10:18 51°13.686 2°55.876 108.7 3.2 288 -999
2009-06-25 07:10:23 51°13.687 2°55.869 107.6 3.4 287 -999
2009-06-25 07:10:28 51°13.688 2°55.861 106.8 3.4 285 -999
2009-06-25 07:10:33 51°13.69 2°55.854 105.6 3.5 285 -999
2009-06-25 07:10:38 51°13.691 2°55.846 104.7 3.6 284 -999
2009-06-25 07:10:43 51°13.692 2°55.838 103.6 3.6 284 -999
2009-06-25 07:10:48 51°13.693 2°55.831 102.7 3.5 282 -999
2009-06-25 07:10:52 51°13.694 2°55.825 101.7 3.5 283 -999
2009-06-25 07:10:58 51°13.695 2°55.816 101.1 3.5 281 -999
2009-06-25 07:11:03 51°13.696 2°55.808 100.2 3.5 282 -999
2009-06-25 07:11:08 51°13.697 2°55.801 99.3 3.4 280 -999
2009-06-25 07:11:12 51°13.698 2°55.795 98.2 3.3 281 -999
2009-06-25 07:11:17 51°13.698 2°55.788 97.3 3.2 279 -999
2009-06-25 07:11:23 51°13.699 2°55.78 96.1 3.1 279 -999
2009-06-25 07:11:28 51°13.7 2°55.773 94.9 3 277 -999
2009-06-25 07:11:33 51°13.7 2°55.767 93.7 2.9 278 -999
2009-06-25 07:11:37 51°13.701 2°55.762 92.5 2.7 276 -999
2009-06-25 07:11:42 51°13.701 2°55.757 91.4 2.2 279 -999
2009-06-25 07:11:48 51°13.701 2°55.754 90.3 1.3 276 11.9
2009-06-25 07:11:52 51°13.702 2°55.752 88 0.9 291 11.8
2009-06-25 07:11:57 51°13.702 2°55.751 84.2 0.5 300 11.7
2009-06-25 07:12:02 51°13.703 2°55.751 78.9 0.5 337 11.8
2009-06-25 07:12:07 51°13.703 2°55.751 73.3 0.4 25 11.9
2009-06-25 07:12:12 51°13.704 2°55.752 67.9 0.7 20 11.8
2009-06-25 07:12:17 51°13.705 2°55.753 62.2 0.9 37 11.7
2009-06-25 07:12:21 51°13.706 2°55.753 56.6 0.9 27 11.7
2009-06-25 07:12:26 51°13.707 2°55.754 50.8 0.8 29 11.9
2009-06-25 07:12:31 51°13.708 2°55.755 46.6 0.5 12 12
2009-06-25 07:12:36 51°13.708 2°55.755 43.5 0.2 331 12.1
2009-06-25 07:12:41 51°13.708 2°55.754 40 0.4 255 12.1
2009-06-25 07:12:45 51°13.708 2°55.753 36.5 0.7 234 12.1
2009-06-25 07:12:50 51°13.707 2°55.752 33.2 0.8 225 12
2009-06-25 07:12:55 51°13.706 2°55.75 30.7 1 224 11.7
2009-06-25 07:13:00 51°13.705 2°55.749 28.3 1 220 11.5
2009-06-25 07:13:05 51°13.704 2°55.747 26.2 1 219 11.1
2009-06-25 07:13:09 51°13.703 2°55.746 24.2 1 221 11.2
2009-06-25 07:13:16 51°13.702 2°55.744 22.2 0.6 244 -999
2009-06-25 07:13:21 51°13.703 2°55.744 19.6 0.5 339 -999
2009-06-25 07:13:27 51°13.705 2°55.743 14.1 1.5 344 -999
2009-06-25 07:13:33 51°13.708 2°55.742 7 2.1 353 -999
2009-06-25 07:13:37 51°13.711 2°55.741 358.5 2.4 341 11.5
2009-06-25 07:13:42 51°13.714 2°55.739 349.9 2.5 341 6.4
2009-06-25 07:13:47 51°13.718 2°55.737 344.9 2.7 335 11.1
2009-06-25 07:13:52 51°13.721 2°55.734 341.1 2.8 335 11
2009-06-25 07:13:57 51°13.725 2°55.731 337.3 3 332 10.7
2009-06-25 07:14:01 51°13.728 2°55.728 334.6 3.4 331 10.5
2009-06-25 07:14:07 51°13.734 2°55.723 332.9 3.8 330 10.3
2009-06-25 07:14:12 51°13.738 2°55.719 332.3 4 330 10.4
2009-06-25 07:14:16 51°13.743 2°55.715 332.3 4.3 330 10.2
2009-06-25 07:14:21 51°13.748 2°55.71 332.6 4.5 330 9.8
2009-06-25 07:14:26 51°13.754 2°55.705 332.7 4.8 331 9.3
2009-06-25 07:14:31 51°13.76 2°55.7 333.2 5 331 9.5
2009-06-25 07:14:36 51°13.766 2°55.694 333.6 5.3 331 8.9
2009-06-25 07:14:40 51°13.771 2°55.689 333.7 5.5 331 8.7
2009-06-25 07:14:45 51°13.778 2°55.683 333.7 5.7 331 9
2009-06-25 07:14:50 51°13.785 2°55.677 333.7 5.9 331 8.7
2009-06-25 07:14:55 51°13.793 2°55.671 334 6.1 332 8.8
2009-06-25 07:15:00 51°13.8 2°55.664 334.7 6.2 333 9
2009-06-25 07:15:05 51°13.808 2°55.658 335.1 6.4 333 9.2
2009-06-25 07:15:09 51°13.815 2°55.652 335.2 6.5 333 9.1
2009-06-25 07:15:15 51°13.825 2°55.645 335.2 6.7 334 9
2009-06-25 07:15:19 51°13.832 2°55.639 335.6 6.9 334 8.8
2009-06-25 07:15:24 51°13.841 2°55.633 336.1 7.1 335 8.8
2009-06-25 07:15:29 51°13.85 2°55.625 336 7.3 334 9.3
2009-06-25 07:15:34 51°13.859 2°55.618 335.8 7.5 334 9.2
2009-06-25 07:15:39 51°13.869 2°55.611 335.8 7.6 334 9.1
2009-06-25 07:15:44 51°13.878 2°55.603 335.7 7.8 333 9.2
2009-06-25 07:15:49 51°13.888 2°55.595 335.3 8 332 9.5
2009-06-25 07:15:54 51°13.898 2°55.586 334.9 8.2 332 9.5
2009-06-25 07:15:59 51°13.908 2°55.578 334.2 8.3 331 9.5
2009-06-25 07:16:04 51°13.919 2°55.569 334.2 8.4 332 9.5
2009-06-25 07:16:09 51°13.929 2°55.56 334.5 8.5 331 9.6
2009-06-25 07:16:14 51°13.939 2°55.551 334.1 8.5 332 9.4
2009-06-25 07:16:19 51°13.95 2°55.542 334.4 8.6 332 9.5
2009-06-25 07:16:24 51°13.961 2°55.533 334.6 8.6 332 9.4
2009-06-25 07:16:29 51°13.971 2°55.524 334.3 8.7 332 9.5
2009-06-25 07:16:33 51°13.98 2°55.517 334.7 8.8 334 9.4
2009-06-25 07:16:39 51°13.993 2°55.507 335.6 8.8 334 9.3
2009-06-25 07:16:44 51°14.004 2°55.499 336.1 8.9 334 8.9
2009-06-25 07:16:49 51°14.016 2°55.49 336.1 8.9 335 8.9
2009-06-25 07:16:53 51°14.025 2°55.483 336.1 9 334 9
2009-06-25 07:16:59 51°14.038 2°55.473 336.9 9 335 9.1
2009-06-25 07:17:04 51°14.049 2°55.465 337.3 9.1 335 9.1
2009-06-25 07:17:09 51°14.061 2°55.456 336.9 9.2 335 9.1
2009-06-25 07:17:13 51°14.07 2°55.449 336.9 9.3 335 8.9
2009-06-25 07:17:19 51°14.084 2°55.438 336.7 9.4 334 8.6
2009-06-25 07:17:24 51°14.096 2°55.429 336.6 9.4 334 8.8
2009-06-25 07:17:29 51°14.108 2°55.42 336.6 9.4 333 9.1
2009-06-25 07:17:34 51°14.119 2°55.41 336.3 9.5 333 9.2
2009-06-25 07:17:39 51°14.131 2°55.401 336.1 9.6 333 9.2
2009-06-25 07:17:44 51°14.143 2°55.39 335.1 9.7 331 9.2
2009-06-25 07:17:49 51°14.155 2°55.38 334.6 9.7 331 9.2
2009-06-25 07:17:54 51°14.167 2°55.369 333.9 9.8 329 9.1
2009-06-25 07:17:59 51°14.178 2°55.357 332 9.8 327 9.1
2009-06-25 07:18:04 51°14.189 2°55.344 329.5 9.9 325 9.1
2009-06-25 07:18:09 51°14.2 2°55.332 327.7 9.8 324 8.8
2009-06-25 07:18:14 51°14.211 2°55.318 325.8 10 320 9.3
2009-06-25 07:18:19 51°14.221 2°55.303 322.6 9.9 319 9.2
2009-06-25 07:18:24 51°14.232 2°55.289 321.4 10 318 9.2
2009-06-25 07:18:29 51°14.242 2°55.273 319.4 10 316 9.1
2009-06-25 07:18:34 51°14.251 2°55.257 318.1 10 315 9.2
2009-06-25 07:18:39 51°14.261 2°55.242 317.1 10.1 314 9
2009-06-25 07:18:44 51°14.271 2°55.225 315.6 10.1 313 9
2009-06-25 07:18:49 51°14.28 2°55.209 315.4 10.1 313 9
2009-06-25 07:18:53 51°14.288 2°55.196 314.7 10.3 311 9.3
2009-06-25 07:18:59 51°14.299 2°55.174 313 10.4 309 9.2
2009-06-25 07:19:04 51°14.308 2°55.156 311.4 10.5 309 8.9
2009-06-25 07:19:09 51°14.317 2°55.138 311 10.5 309 9
2009-06-25 07:19:13 51°14.324 2°55.124 311.5 10.6 310 9
2009-06-25 07:19:19 51°14.336 2°55.102 311.5 10.8 309 9.2
2009-06-25 07:19:24 51°14.345 2°55.083 311.1 10.9 310 9.1
2009-06-25 07:19:29 51°14.355 2°55.065 311 10.9 310 9.2
2009-06-25 07:19:33 51°14.363 2°55.05 312.5 11 313 9
2009-06-25 07:19:39 51°14.376 2°55.029 314.9 11.1 315 8.7
2009-06-25 07:19:44 51°14.387 2°55.012 317.2 11.1 316 8.9
2009-06-25 07:19:49 51°14.399 2°54.995 318.3 11.3 317 8.9
2009-06-25 07:19:54 51°14.41 2°54.978 319.6 11.4 317 8.9
2009-06-25 07:19:59 51°14.422 2°54.96 320.3 11.5 318 9
2009-06-25 07:20:04 51°14.434 2°54.943 321.4 11.6 318 9
2009-06-25 07:20:09 51°14.446 2°54.927 323.2 11.6 320 9.1
2009-06-25 07:20:14 51°14.459 2°54.911 326 11.6 322 9
2009-06-25 07:20:19 51°14.472 2°54.896 328.2 11.7 323 9.1
2009-06-25 07:20:24 51°14.485 2°54.879 329.3 11.8 320 9
2009-06-25 07:20:29 51°14.497 2°54.862 328.8 11.9 318 9.1
2009-06-25 07:20:34 51°14.509 2°54.844 327.1 11.9 317 9
2009-06-25 07:20:39 51°14.521 2°54.827 326.7 11.8 319 8.9
2009-06-25 07:20:44 51°14.534 2°54.809 327.7 11.9 318 8.8
2009-06-25 07:20:49 51°14.546 2°54.791 327.5 11.8 317 8.9
2009-06-25 07:20:53 51°14.555 2°54.777 327.1 11.8 316 8.5
2009-06-25 07:20:59 51°14.569 2°54.755 325.2 11.8 314 8.6
2009-06-25 07:21:04 51°14.58 2°54.736 323.8 11.8 314 8.8
2009-06-25 07:21:09 51°14.591 2°54.717 322.3 11.8 312 8.6
2009-06-25 07:21:13 51°14.6 2°54.702 322.7 11.6 316 8.6
2009-06-25 07:21:19 51°14.614 2°54.681 324.6 11.7 315 8.5
2009-06-25 07:21:24 51°14.625 2°54.661 324 11.7 313 8.4
2009-06-25 07:21:29 51°14.636 2°54.643 323.2 11.7 314 8.7
2009-06-25 07:21:34 51°14.647 2°54.623 323 11.8 312 8.5
2009-06-25 07:21:39 51°14.658 2°54.604 322.1 11.8 312 8.5
2009-06-25 07:21:44 51°14.669 2°54.584 321 11.9 310 8.6
2009-06-25 07:21:49 51°14.68 2°54.564 320.6 11.9 311 8.7
2009-06-25 07:21:54 51°14.69 2°54.543 320.2 12 310 8.7
2009-06-25 07:21:59 51°14.701 2°54.523 319.9 11.9 310 8.6
2009-06-25 07:22:04 51°14.712 2°54.503 319.7 12 309 9
2009-06-25 07:22:09 51°14.722 2°54.482 319.3 12 309 8.8
2009-06-25 07:22:14 51°14.733 2°54.462 318.8 12 309 8.8
2009-06-25 07:22:19 51°14.743 2°54.441 318.5 11.9 309 8.6
2009-06-25 07:22:24 51°14.753 2°54.421 318.3 11.9 309 8.9
2009-06-25 07:22:29 51°14.764 2°54.401 318.2 11.9 309 8.8
2009-06-25 07:22:33 51°14.772 2°54.384 318.3 11.9 309 8.7
2009-06-25 07:22:39 51°14.785 2°54.36 318.3 11.9 310 8.8
2009-06-25 07:22:44 51°14.795 2°54.339 317.9 11.9 308 8.5
2009-06-25 07:22:49 51°14.805 2°54.319 317.4 11.9 308 8.7
2009-06-25 07:22:54 51°14.816 2°54.298 317.2 11.9 308 8.8
2009-06-25 07:22:59 51°14.826 2°54.277 317 11.8 308 8.5
2009-06-25 07:23:04 51°14.836 2°54.257 316.5 11.9 308 8.5
2009-06-25 07:23:09 51°14.846 2°54.236 316.4 11.9 308 8.4
2009-06-25 07:23:14 51°14.856 2°54.216 316.2 11.8 308 8.2
2009-06-25 07:23:19 51°14.866 2°54.195 316.2 11.7 308 8.1
2009-06-25 07:23:24 51°14.876 2°54.175 316 11.7 308 8.1
2009-06-25 07:23:29 51°14.886 2°54.155 315.8 11.7 308 7.9
2009-06-25 07:23:33 51°14.894 2°54.138 315.8 11.7 309 7.9
2009-06-25 07:23:39 51°14.907 2°54.114 315.8 11.6 308 7.7
2009-06-25 07:23:44 51°14.916 2°54.094 315.6 11.6 308 7.9
2009-06-25 07:23:49 51°14.926 2°54.073 314.8 11.7 307 8.2
2009-06-25 07:23:54 51°14.936 2°54.053 314.4 11.7 307 7.9
2009-06-25 07:23:59 51°14.945 2°54.032 314.7 11.6 306 7.7
2009-06-25 07:24:04 51°14.955 2°54.012 314.4 11.7 306 8.1
2009-06-25 07:24:09 51°14.964 2°53.991 314 11.7 306 8.5
2009-06-25 07:24:14 51°14.974 2°53.969 313.8 11.8 306 8.3
2009-06-25 07:24:19 51°14.983 2°53.949 313.8 11.7 307 8.3
2009-06-25 07:24:24 51°14.993 2°53.928 314.1 11.8 306 8.6
2009-06-25 07:24:29 51°15.003 2°53.907 314.4 11.7 307 8.3
2009-06-25 07:24:33 51°15.01 2°53.89 314.4 11.7 306 8.2
2009-06-25 07:24:39 51°15.022 2°53.865 314 11.7 306 8.6
2009-06-25 07:24:44 51°15.031 2°53.844 314.2 11.6 306 8.3
2009-06-25 07:24:49 51°15.041 2°53.824 314.4 11.6 307 8.3
2009-06-25 07:24:54 51°15.051 2°53.803 314.4 11.7 306 8.7
2009-06-25 07:24:59 51°15.06 2°53.783 314.4 11.7 307 8.7
2009-06-25 07:25:04 51°15.07 2°53.762 314.5 11.7 307 8.6
2009-06-25 07:25:09 51°15.08 2°53.741 314.7 11.7 307 8.6
2009-06-25 07:25:14 51°15.09 2°53.721 314.6 11.6 307 8.3
2009-06-25 07:25:19 51°15.1 2°53.701 314.4 11.6 307 8.4
2009-06-25 07:25:24 51°15.11 2°53.68 314.6 11.7 306 8.4
2009-06-25 07:25:29 51°15.119 2°53.66 314 11.7 307 8.3
2009-06-25 07:25:34 51°15.129 2°53.639 314.1 11.7 306 8.4
2009-06-25 07:25:39 51°15.138 2°53.618 314.3 11.6 307 8.6
2009-06-25 07:25:44 51°15.148 2°53.597 314.6 11.7 306 8.6
2009-06-25 07:25:49 51°15.157 2°53.576 314.9 11.7 307 8.6
2009-06-25 07:25:53 51°15.165 2°53.559 314.8 11.6 306 8.2
2009-06-25 07:25:59 51°15.177 2°53.534 314.6 11.7 306 8.5
2009-06-25 07:26:04 51°15.187 2°53.514 314.4 11.7 307 8.5
2009-06-25 07:26:09 51°15.197 2°53.493 314.7 11.8 306 8.7
2009-06-25 07:26:14 51°15.207 2°53.473 314.5 11.8 307 8.7
2009-06-25 07:26:19 51°15.217 2°53.452 314.7 11.8 306 8.7
2009-06-25 07:26:24 51°15.227 2°53.431 315 11.8 307 8.7
2009-06-25 07:26:29 51°15.236 2°53.41 314.8 11.9 306 8.9
2009-06-25 07:26:34 51°15.246 2°53.389 314.6 11.9 306 9
2009-06-25 07:26:39 51°15.256 2°53.367 314.7 11.9 306 8.9
2009-06-25 07:26:44 51°15.265 2°53.346 315 11.9 307 8.6
2009-06-25 07:26:49 51°15.275 2°53.325 315.1 11.9 306 8.8
2009-06-25 07:26:54 51°15.285 2°53.304 315.1 11.9 306 9.2
2009-06-25 07:26:59 51°15.295 2°53.282 314.9 11.9 307 9.2
2009-06-25 07:27:04 51°15.305 2°53.261 315.4 11.9 306 8.9
2009-06-25 07:27:09 51°15.315 2°53.24 315.2 11.9 307 9.1
2009-06-25 07:27:13 51°15.323 2°53.223 315.4 11.9 307 9.1
2009-06-25 07:27:19 51°15.334 2°53.198 315.7 11.9 307 9.4
2009-06-25 07:27:24 51°15.344 2°53.176 315.3 11.9 306 9.5
2009-06-25 07:27:29 51°15.354 2°53.155 315 11.9 307 9
2009-06-25 07:27:34 51°15.364 2°53.134 314.8 11.9 307 9.4
2009-06-25 07:27:39 51°15.374 2°53.113 315.3 11.9 307 8.8
2009-06-25 07:27:44 51°15.384 2°53.092 315.3 11.9 306 9
2009-06-25 07:27:49 51°15.394 2°53.07 314.8 12 306 9.3
2009-06-25 07:27:54 51°15.404 2°53.049 314.9 11.9 307 9.2
2009-06-25 07:27:59 51°15.414 2°53.028 315 12 307 9.4
2009-06-25 07:28:04 51°15.423 2°53.007 315 12 307 9.8
2009-06-25 07:28:09 51°15.433 2°52.985 315 12 307 9.8
2009-06-25 07:28:14 51°15.444 2°52.965 315.6 11.8 309 9.3
2009-06-25 07:28:19 51°15.455 2°52.945 318.3 11.9 310 9.9
2009-06-25 07:28:24 51°15.465 2°52.924 319.4 11.8 310 9.9
2009-06-25 07:28:29 51°15.476 2°52.906 321 11.7 313 9.7
2009-06-25 07:28:33 51°15.485 2°52.89 322.2 11.8 313 10
2009-06-25 07:28:39 51°15.499 2°52.869 325.2 11.6 319 9.7
2009-06-25 07:28:44 51°15.511 2°52.852 327.8 11.6 319 10.1
2009-06-25 07:28:49 51°15.523 2°52.836 329.6 11.4 322 9.8
2009-06-25 07:28:53 51°15.534 2°52.825 333.7 11.3 326 9.9
2009-06-25 07:28:59 51°15.549 2°52.809 336.5 11.2 329 10.1
2009-06-25 07:29:04 51°15.563 2°52.797 339 11.1 331 10.1
2009-06-25 07:29:09 51°15.577 2°52.787 343.4 10.9 336 10
2009-06-25 07:29:13 51°15.588 2°52.78 346.6 10.8 338 10
2009-06-25 07:29:19 51°15.605 2°52.771 349.9 10.6 345 10.2
2009-06-25 07:29:24 51°15.619 2°52.766 354.7 10.6 347 10.4
2009-06-25 07:29:29 51°15.634 2°52.762 357.6 10.4 351 10.1
2009-06-25 07:29:34 51°15.648 2°52.76 1.2 10.5 354 10.2
2009-06-25 07:29:39 51°15.663 2°52.757 2.4 10.4 354 10.2
2009-06-25 07:29:44 51°15.677 2°52.756 4.6 10.4 357 10.5
2009-06-25 07:29:49 51°15.691 2°52.755 5.9 10.4 357 10.1
2009-06-25 07:29:54 51°15.705 2°52.755 7.3 10.3 359 10.3
2009-06-25 07:29:59 51°15.719 2°52.755 8.8 10.4 359 10.5
2009-06-25 07:30:04 51°15.733 2°52.754 8.9 10.4 357 10.2
2009-06-25 07:30:09 51°15.748 2°52.751 6 10.6 353 10.3
2009-06-25 07:30:14 51°15.762 2°52.75 5.3 10.5 356 10.4
2009-06-25 07:30:19 51°15.777 2°52.747 5.1 10.6 353 10.4
2009-06-25 07:30:24 51°15.792 2°52.744 4.2 10.7 354 10.4
2009-06-25 07:30:29 51°15.807 2°52.741 3.6 10.7 353 10.5
2009-06-25 07:30:34 51°15.822 2°52.738 3.1 10.8 353 10.6
2009-06-25 07:30:39 51°15.837 2°52.735 2.7 10.8 352 10.4
2009-06-25 07:30:44 51°15.851 2°52.731 2.1 10.8 352 10.6
2009-06-25 07:30:49 51°15.866 2°52.728 1.8 10.9 351 10.7
2009-06-25 07:30:53 51°15.878 2°52.724 1.4 10.9 351 10.5
2009-06-25 07:30:59 51°15.897 2°52.719 1.3 11 349 10.6
2009-06-25 07:31:04 51°15.912 2°52.716 0.8 10.9 352 10.8
2009-06-25 07:31:09 51°15.926 2°52.711 1.1 11 349 10.5
2009-06-25 07:31:13 51°15.939 2°52.707 0.1 10.9 352 10.7
2009-06-25 07:31:19 51°15.957 2°52.703 1.3 11 348 10.7
2009-06-25 07:31:24 51°15.972 2°52.697 359.2 10.9 349 10.5
2009-06-25 07:31:29 51°15.986 2°52.694 359.7 10.9 351 10.9
2009-06-25 07:31:33 51°15.998 2°52.689 358.7 11 347 10.8
2009-06-25 07:31:39 51°16.016 2°52.684 357.9 11 349 10.7
2009-06-25 07:31:44 51°16.031 2°52.678 358.3 11 348 11
2009-06-25 07:31:49 51°16.046 2°52.673 358 11 348 11
2009-06-25 07:31:54 51°16.061 2°52.668 357.8 11 348 10.7
2009-06-25 07:31:59 51°16.075 2°52.663 357.9 11 348 10.6
2009-06-25 07:32:04 51°16.09 2°52.658 358.2 11 348 11
2009-06-25 07:32:09 51°16.105 2°52.653 358.2 11 348 10.8
2009-06-25 07:32:14 51°16.12 2°52.648 357.6 11.1 347 10.8
2009-06-25 07:32:19 51°16.135 2°52.643 357.4 11 347 10.7
2009-06-25 07:32:24 51°16.15 2°52.637 357 11.1 346 10.9
2009-06-25 07:32:29 51°16.165 2°52.631 356.8 11.1 347 10.9
2009-06-25 07:32:34 51°16.18 2°52.625 356.4 11.1 346 10.7
2009-06-25 07:32:39 51°16.195 2°52.619 356 11.1 346 10.8
2009-06-25 07:32:44 51°16.21 2°52.613 355.6 11.1 346 10.8
2009-06-25 07:32:49 51°16.225 2°52.607 355.2 11.1 345 10.7
2009-06-25 07:32:54 51°16.24 2°52.601 355.2 11.1 346 11.2
2009-06-25 07:32:59 51°16.255 2°52.595 355.7 11.1 346 11
2009-06-25 07:33:04 51°16.27 2°52.589 355.7 11 346 10.7
2009-06-25 07:33:09 51°16.285 2°52.583 355.9 11.1 346 11
2009-06-25 07:33:13 51°16.297 2°52.578 356.6 11.1 347 10.7
2009-06-25 07:33:19 51°16.315 2°52.572 357.1 11 347 10.6
2009-06-25 07:33:24 51°16.33 2°52.566 357.2 11 347 11
2009-06-25 07:33:29 51°16.345 2°52.561 356.9 11 346 10.6
2009-06-25 07:33:33 51°16.356 2°52.556 355.9 11 345 10.8
2009-06-25 07:33:39 51°16.374 2°52.549 355.7 11 346 10.6
2009-06-25 07:33:44 51°16.389 2°52.542 355.3 11.1 345 10.5
2009-06-25 07:33:49 51°16.404 2°52.536 355.2 11.1 346 10.6
2009-06-25 07:33:53 51°16.416 2°52.532 355.6 11.1 346 10.6
2009-06-25 07:33:59 51°16.434 2°52.525 356.1 11.1 347 10.6
2009-06-25 07:34:04 51°16.449 2°52.519 356.7 11 347 10.5
2009-06-25 07:34:09 51°16.464 2°52.514 357 11 348 10.8
2009-06-25 07:34:14 51°16.479 2°52.509 357.4 11.1 348 10.5
2009-06-25 07:34:19 51°16.494 2°52.504 357.6 11.1 348 10.2
2009-06-25 07:34:24 51°16.509 2°52.498 357.4 11.1 347 10.4
2009-06-25 07:34:29 51°16.524 2°52.493 357 11.1 348 10.4
2009-06-25 07:34:34 51°16.539 2°52.488 357 11.1 347 9.9
2009-06-25 07:34:39 51°16.554 2°52.482 356.8 11 347 10
2009-06-25 07:34:44 51°16.569 2°52.477 357.1 11.1 347 10
2009-06-25 07:34:49 51°16.584 2°52.471 357 11.1 347 10
2009-06-25 07:34:54 51°16.599 2°52.466 357 11 347 9.7
2009-06-25 07:34:59 51°16.614 2°52.461 356.9 11 347 9.7
2009-06-25 07:35:04 51°16.629 2°52.455 355.8 11 347 9.7
2009-06-25 07:35:09 51°16.644 2°52.45 355.8 10.9 348 9.7
2009-06-25 07:35:13 51°16.656 2°52.447 357.6 10.9 350 9.4
2009-06-25 07:35:19 51°16.674 2°52.442 358.1 10.9 351 9.8
2009-06-25 07:35:24 51°16.689 2°52.439 358.7 10.7 352 9.1
2009-06-25 07:35:29 51°16.704 2°52.436 359.6 10.7 352 9
2009-06-25 07:35:33 51°16.716 2°52.434 0.1 10.7 353 8.8
2009-06-25 07:35:39 51°16.734 2°52.431 0.5 10.7 353 8.7
2009-06-25 07:35:44 51°16.749 2°52.428 0.7 10.8 353 9.3
2009-06-25 07:35:49 51°16.764 2°52.425 0.5 10.8 353 9
2009-06-25 07:35:53 51°16.775 2°52.423 0.7 10.7 353 9
2009-06-25 07:35:59 51°16.793 2°52.419 0.7 10.7 353 9
2009-06-25 07:36:04 51°16.807 2°52.416 0.8 10.7 353 8.7
2009-06-25 07:36:09 51°16.822 2°52.413 0.8 10.7 353 8.6
2009-06-25 07:36:14 51°16.836 2°52.41 1.2 10.6 354 8.8
2009-06-25 07:36:19 51°16.851 2°52.408 1.3 10.5 354 8.3
2009-06-25 07:36:24 51°16.866 2°52.406 2.2 10.5 357 8.7
2009-06-25 07:36:29 51°16.88 2°52.406 4.5 10.5 359 8.3
2009-06-25 07:36:34 51°16.895 2°52.405 5.4 10.4 358 8.5
2009-06-25 07:36:39 51°16.909 2°52.406 6.8 10.4 -999 8.3
2009-06-25 07:36:44 51°16.924 2°52.406 7.8 10.3 1 8.2
2009-06-25 07:36:49 51°16.938 2°52.407 8.8 10.4 2 8.3
2009-06-25 07:36:54 51°16.952 2°52.407 9.3 10.4 2 8.3
2009-06-25 07:36:59 51°16.967 2°52.409 9.8 10.4 4 8.3
2009-06-25 07:37:04 51°16.981 2°52.41 10.2 10.4 3 8.6
2009-06-25 07:37:09 51°16.995 2°52.412 10.3 10.4 4 8.4
2009-06-25 07:37:14 51°17.01 2°52.413 11 10.4 3 8.4
2009-06-25 07:37:19 51°17.024 2°52.415 10.9 10.4 4 8.6
2009-06-25 07:37:25 51°17.041 2°52.417 11 10.3 5 8.5
2009-06-25 07:37:29 51°17.053 2°52.418 11.4 10.3 4 8.6
2009-06-25 07:37:33 51°17.064 2°52.42 11.5 10.4 4 8.6
2009-06-25 07:37:39 51°17.081 2°52.422 11 10.4 3 8.8
2009-06-25 07:37:44 51°17.096 2°52.423 10.8 10.4 4 8.6
2009-06-25 07:37:49 51°17.11 2°52.425 11.1 10.4 4 8.6
2009-06-25 07:37:53 51°17.122 2°52.426 10.5 10.4 2 8.5
2009-06-25 07:37:59 51°17.139 2°52.426 8.9 10.3 1 8.5
2009-06-25 07:38:04 51°17.153 2°52.426 8.7 10.5 -999 8.8
2009-06-25 07:38:09 51°17.168 2°52.426 8 10.5 359 8.6
2009-06-25 07:38:13 51°17.179 2°52.426 7.6 10.5 1 9.1
2009-06-25 07:38:19 51°17.197 2°52.425 7.5 10.5 1 8.8
2009-06-25 07:38:24 51°17.211 2°52.426 8.1 10.4 1 8.6
2009-06-25 07:38:29 51°17.226 2°52.427 8.9 10.3 2 9
2009-06-25 07:38:34 51°17.24 2°52.428 9.1 10.4 2 8.9
2009-06-25 07:38:39 51°17.254 2°52.429 9.5 10.4 2 8.7
2009-06-25 07:38:44 51°17.269 2°52.43 10.3 10.3 3 8.9
2009-06-25 07:38:49 51°17.283 2°52.431 10.3 10.3 3 9
2009-06-25 07:38:54 51°17.298 2°52.432 10.2 10.4 3 9
2009-06-25 07:38:59 51°17.312 2°52.433 10.4 10.4 3 9
2009-06-25 07:39:04 51°17.326 2°52.434 10.4 10.4 3 8.9
2009-06-25 07:39:09 51°17.34 2°52.435 10.5 10.3 2 8.8
2009-06-25 07:39:14 51°17.355 2°52.436 10.5 10.4 3 9.2
2009-06-25 07:39:19 51°17.369 2°52.437 10.1 10.4 3 9
2009-06-25 07:39:24 51°17.383 2°52.438 10.2 10.3 3 8.7
2009-06-25 07:39:29 51°17.398 2°52.439 10.4 10.3 3 9
2009-06-25 07:39:34 51°17.412 2°52.44 10.6 10.4 3 9
2009-06-25 07:39:39 51°17.427 2°52.441 10.6 10.4 3 9.1
2009-06-25 07:39:44 51°17.441 2°52.442 10.4 10.3 3 8.8
2009-06-25 07:39:49 51°17.455 2°52.443 10.5 10.3 3 9.3
2009-06-25 07:39:53 51°17.467 2°52.444 10.3 10.3 3 9.2
2009-06-25 07:39:59 51°17.484 2°52.445 10.4 10.4 2 9.2
2009-06-25 07:40:04 51°17.498 2°52.446 10.3 10.4 2 9.1
2009-06-25 07:40:09 51°17.513 2°52.447 10.2 10.4 3 9
2009-06-25 07:40:13 51°17.524 2°52.448 10.6 10.4 2 8.9
2009-06-25 07:40:19 51°17.541 2°52.449 10.4 10.4 3 9
2009-06-25 07:40:24 51°17.556 2°52.449 10.4 10.4 2 9.2
2009-06-25 07:40:29 51°17.57 2°52.45 10.2 10.4 2 9.2
2009-06-25 07:40:34 51°17.584 2°52.451 10.1 10.4 2 9.1
2009-06-25 07:40:39 51°17.599 2°52.452 10.2 10.4 2 8.9
2009-06-25 07:40:44 51°17.613 2°52.453 10.4 10.4 3 9.1
2009-06-25 07:40:49 51°17.627 2°52.455 10.7 10.3 3 9.2
2009-06-25 07:40:54 51°17.641 2°52.456 10.8 10.3 3 8.9
2009-06-25 07:40:59 51°17.656 2°52.457 10.6 10.4 3 8.8
2009-06-25 07:41:04 51°17.67 2°52.458 11 10.3 4 8.9
2009-06-25 07:41:09 51°17.684 2°52.46 11.8 10.3 4 9.2
2009-06-25 07:41:14 51°17.699 2°52.461 11.6 10.3 3 9
2009-06-25 07:41:19 51°17.713 2°52.462 11 10.3 3 8.9
2009-06-25 07:41:24 51°17.727 2°52.463 10.7 10.4 2 9.1
2009-06-25 07:41:29 51°17.742 2°52.464 10.3 10.4 3 9
2009-06-25 07:41:34 51°17.756 2°52.464 10.2 10.3 2 8.8
2009-06-25 07:41:39 51°17.77 2°52.465 10 10.3 3 9
2009-06-25 07:41:44 51°17.784 2°52.467 10.4 10.3 3 9
2009-06-25 07:41:49 51°17.799 2°52.468 10.3 10.3 3 8.9
2009-06-25 07:41:54 51°17.813 2°52.469 10.6 10.2 4 8.9
2009-06-25 07:41:59 51°17.827 2°52.471 12 10.2 6 9.1
2009-06-25 07:42:04 51°17.841 2°52.473 13 10.3 5 9.2
2009-06-25 07:42:09 51°17.855 2°52.476 13.8 10.2 8 9.2
2009-06-25 07:42:13 51°17.866 2°52.478 14.2 10.3 6 9.1
2009-06-25 07:42:19 51°17.883 2°52.482 14.1 10.3 9 9
2009-06-25 07:42:24 51°17.897 2°52.485 15.1 10.3 7 9.2
2009-06-25 07:42:29 51°17.911 2°52.488 15.2 10.3 9 9.1
2009-06-25 07:42:33 51°17.923 2°52.491 15.8 10.3 7 9
2009-06-25 07:42:39 51°17.94 2°52.494 15.4 10.2 8 9.1
2009-06-25 07:42:44 51°17.954 2°52.498 15.6 10.3 7 9.1
2009-06-25 07:42:49 51°17.968 2°52.501 15.6 10.3 9 9.1
2009-06-25 07:42:54 51°17.982 2°52.505 16.1 10.3 8 9.4
2009-06-25 07:42:59 51°17.996 2°52.508 15.8 10.2 11 9.4
2009-06-25 07:43:04 51°18.009 2°52.515 20 10.1 17 9.1
2009-06-25 07:43:09 51°18.023 2°52.52 21.9 10.1 14 9.2
2009-06-25 07:43:14 51°18.036 2°52.528 24 10 20 9.5
2009-06-25 07:43:19 51°18.049 2°52.535 25.1 10 19 9.4
2009-06-25 07:43:24 51°18.062 2°52.543 26.5 10 22 9.3
2009-06-25 07:43:29 51°18.075 2°52.55 27.6 10 21 9.2
2009-06-25 07:43:34 51°18.088 2°52.559 28.7 9.9 24 9
2009-06-25 07:43:39 51°18.101 2°52.568 29.4 9.9 23 9.3
2009-06-25 07:43:44 51°18.113 2°52.577 30.1 10 25 9.6
2009-06-25 07:43:49 51°18.126 2°52.586 30.8 10 26 9.4
2009-06-25 07:43:54 51°18.139 2°52.596 31.9 10 26 9.4
2009-06-25 07:43:59 51°18.151 2°52.606 32.4 9.9 30 9.4
2009-06-25 07:44:05 51°18.165 2°52.621 35.3 9.8 32 9.4
2009-06-25 07:44:09 51°18.174 2°52.63 37.1 9.9 33 9.3
2009-06-25 07:44:13 51°18.182 2°52.642 40.7 9.7 40 9.2
2009-06-25 07:44:19 51°18.194 2°52.658 43.3 9.8 41 9.6
2009-06-25 07:44:24 51°18.204 2°52.673 45.3 9.7 45 9.8
2009-06-25 07:44:29 51°18.213 2°52.688 47.2 9.7 45 9.6
2009-06-25 07:44:33 51°18.22 2°52.701 48.7 9.7 48 10
2009-06-25 07:44:39 51°18.23 2°52.721 50.3 9.7 51 9.9
2009-06-25 07:44:44 51°18.238 2°52.738 52.9 9.5 53 9.4
2009-06-25 07:44:49 51°18.246 2°52.755 53.8 9.5 52 9.6
2009-06-25 07:44:53 51°18.252 2°52.769 55.6 9.7 56 9.9
2009-06-25 07:44:59 51°18.261 2°52.79 56.7 9.6 55 9.5
2009-06-25 07:45:04 51°18.268 2°52.808 58.2 9.6 59 9.5
2009-06-25 07:45:09 51°18.276 2°52.826 58.3 9.7 54 9.5
2009-06-25 07:45:14 51°18.283 2°52.844 58.8 9.7 60 9.7
2009-06-25 07:45:19 51°18.29 2°52.862 59.6 9.7 58 9.9
2009-06-25 07:45:24 51°18.297 2°52.881 59.9 9.7 59 9.6
2009-06-25 07:45:29 51°18.304 2°52.899 59.8 9.7 58 9.7
2009-06-25 07:45:34 51°18.311 2°52.918 59.6 9.7 59 9.9
2009-06-25 07:45:39 51°18.318 2°52.936 59.8 9.7 59 9.8
2009-06-25 07:45:44 51°18.324 2°52.956 60.9 9.8 65 9.9
2009-06-25 07:45:49 51°18.328 2°52.976 65.7 9.7 70 10
2009-06-25 07:45:54 51°18.333 2°52.996 68.3 9.7 70 9.9
2009-06-25 07:45:59 51°18.337 2°53.016 71 9.8 75 9.9
2009-06-25 07:46:04 51°18.34 2°53.037 72.8 9.7 75 9.5
2009-06-25 07:46:09 51°18.343 2°53.058 74.4 9.7 78 9.6
2009-06-25 07:46:14 51°18.346 2°53.079 76.2 9.6 78 9.5
2009-06-25 07:46:19 51°18.348 2°53.1 77.3 9.7 80 9.5
2009-06-25 07:46:25 51°18.35 2°53.126 78.5 9.8 81 9.5
2009-06-25 07:46:29 51°18.352 2°53.143 78.9 9.8 81 9.4
2009-06-25 07:46:33 51°18.353 2°53.16 80.3 9.8 85 9.8
2009-06-25 07:46:39 51°18.355 2°53.186 80.9 9.8 82 9.7
2009-06-25 07:46:44 51°18.356 2°53.208 81.2 9.8 85 9.6
2009-06-25 07:46:49 51°18.358 2°53.23 81.1 9.9 83 9.5
2009-06-25 07:46:53 51°18.359 2°53.247 80.8 9.8 85 9.5
2009-06-25 07:46:59 51°18.361 2°53.273 82.1 9.8 83 9.6
2009-06-25 07:47:04 51°18.363 2°53.294 81.3 9.8 83 9.5
2009-06-25 07:47:09 51°18.363 2°53.316 82.1 9.8 86 9.7
2009-06-25 07:47:13 51°18.366 2°53.333 79.8 9.9 81 9.8
2009-06-25 07:47:19 51°18.368 2°53.359 79.8 9.8 81 9.7
2009-06-25 07:47:24 51°18.371 2°53.38 77.9 9.8 80 9.6
2009-06-25 07:47:29 51°18.373 2°53.401 77.8 9.8 81 9.8
2009-06-25 07:47:34 51°18.376 2°53.423 77.2 9.8 77 9.7
2009-06-25 07:47:39 51°18.379 2°53.444 76.7 9.8 78 9.8
2009-06-25 07:47:44 51°18.383 2°53.465 75.6 9.7 76 9.4
2009-06-25 07:47:49 51°18.385 2°53.486 75.6 9.7 78 9.5
2009-06-25 07:47:54 51°18.389 2°53.507 74.8 9.8 76 9.5
2009-06-25 07:47:59 51°18.393 2°53.527 73.8 9.7 73 9.5
2009-06-25 07:48:04 51°18.396 2°53.548 73.2 9.8 76 9.8
2009-06-25 07:48:09 51°18.4 2°53.569 73 9.7 74 9.9
2009-06-25 07:48:14 51°18.403 2°53.59 73.3 9.8 77 9.8
2009-06-25 07:48:19 51°18.407 2°53.61 73.4 9.7 72 9.5
2009-06-25 07:48:24 51°18.411 2°53.631 72.9 9.8 75 9.6
2009-06-25 07:48:29 51°18.415 2°53.652 72 9.8 72 9.3
2009-06-25 07:48:34 51°18.419 2°53.673 72.3 9.7 73 9.4
2009-06-25 07:48:39 51°18.423 2°53.693 71.9 9.8 73 9.3
2009-06-25 07:48:44 51°18.426 2°53.714 72.5 9.7 72 9.4
2009-06-25 07:48:49 51°18.431 2°53.735 71.9 9.8 72 9.4
2009-06-25 07:48:53 51°18.434 2°53.751 71.7 9.7 72 9.4
2009-06-25 07:48:59 51°18.439 2°53.776 71.2 9.8 71 9.7
2009-06-25 07:49:04 51°18.444 2°53.796 70.7 9.8 72 9.6
2009-06-25 07:49:09 51°18.447 2°53.817 71.6 9.8 73 9.6
2009-06-25 07:49:13 51°18.451 2°53.833 71.5 9.8 72 9.7
2009-06-25 07:49:19 51°18.456 2°53.858 71.9 9.7 72 9.5
2009-06-25 07:49:24 51°18.46 2°53.879 71.7 9.7 73 9.5
2009-06-25 07:49:29 51°18.464 2°53.899 72.1 9.7 72 9.6
2009-06-25 07:49:34 51°18.468 2°53.92 71.9 9.8 75 9.7
2009-06-25 07:49:39 51°18.473 2°53.94 71.8 9.8 71 9.6
2009-06-25 07:49:44 51°18.477 2°53.961 71.8 9.7 73 9.5
2009-06-25 07:49:49 51°18.481 2°53.981 71.4 9.7 71 9.5
2009-06-25 07:49:54 51°18.485 2°54.002 71.1 9.7 72 9.5
2009-06-25 07:49:59 51°18.49 2°54.022 70.2 9.7 72 9.5
2009-06-25 07:50:04 51°18.494 2°54.042 71 9.7 70 9.4
2009-06-25 07:50:09 51°18.498 2°54.063 70.5 9.7 71 9.5
2009-06-25 07:50:14 51°18.502 2°54.083 70.9 9.7 71 9.3
2009-06-25 07:50:19 51°18.507 2°54.103 70.4 9.7 69 9.3
2009-06-25 07:50:24 51°18.512 2°54.123 69.8 9.7 72 9.5
2009-06-25 07:50:29 51°18.516 2°54.144 70.3 9.7 70 9.6
2009-06-25 07:50:34 51°18.521 2°54.164 70.1 9.7 71 9.5
2009-06-25 07:50:39 51°18.525 2°54.184 70.1 9.7 71 9.2
2009-06-25 07:50:44 51°18.529 2°54.204 70.8 9.7 72 9.4
2009-06-25 07:50:49 51°18.534 2°54.224 70.7 9.7 70 9.2
2009-06-25 07:50:54 51°18.538 2°54.245 70.8 9.7 71 9.6
2009-06-25 07:50:59 51°18.543 2°54.265 69.6 9.7 70 9.5
2009-06-25 07:51:05 51°18.548 2°54.289 70.1 9.7 71 9.5
2009-06-25 07:51:09 51°18.552 2°54.305 70.2 9.7 70 9.3
2009-06-25 07:51:13 51°18.555 2°54.322 70.4 9.7 69 9.1
2009-06-25 07:51:19 51°18.56 2°54.346 69.8 9.7 71 9.3
2009-06-25 07:51:24 51°18.564 2°54.366 70.6 9.6 71 9.4
2009-06-25 07:51:29 51°18.569 2°54.386 71.4 9.7 72 9.3
2009-06-25 07:51:34 51°18.573 2°54.407 70.8 9.7 69 9.3
2009-06-25 07:51:39 51°18.578 2°54.427 69.9 9.7 71 9.5
2009-06-25 07:51:44 51°18.582 2°54.447 70.5 9.7 71 9.3
2009-06-25 07:51:49 51°18.586 2°54.468 71 9.7 72 9.4
2009-06-25 07:51:54 51°18.591 2°54.488 70.2 9.7 70 9.5
2009-06-25 07:51:59 51°18.596 2°54.508 69.8 9.7 70 9.4
2009-06-25 07:52:04 51°18.6 2°54.528 70 9.7 70 9.3
2009-06-25 07:52:09 51°18.604 2°54.548 70.4 9.7 71 9.1
2009-06-25 07:52:14 51°18.609 2°54.569 71.3 9.8 72 9.6
2009-06-25 07:52:19 51°18.613 2°54.589 70.5 9.8 70 9.5
2009-06-25 07:52:24 51°18.617 2°54.61 70.8 9.7 72 9.3
2009-06-25 07:52:29 51°18.622 2°54.63 70.5 9.8 71 9.7
2009-06-25 07:52:34 51°18.626 2°54.65 70 9.7 71 9.4
2009-06-25 07:52:39 51°18.631 2°54.67 70.3 9.7 70 9.2
2009-06-25 07:52:44 51°18.635 2°54.691 71.2 9.8 72 9.4
2009-06-25 07:52:49 51°18.639 2°54.711 71.1 9.8 71 9.5
2009-06-25 07:52:54 51°18.644 2°54.732 70.7 9.7 71 9.2
2009-06-25 07:52:59 51°18.647 2°54.753 71.4 9.7 73 9.3
2009-06-25 07:53:05 51°18.653 2°54.777 70.9 9.8 71 9.5
2009-06-25 07:53:09 51°18.656 2°54.793 71.2 9.7 71 9.4
2009-06-25 07:53:13 51°18.66 2°54.809 70.2 9.8 70 9.4
2009-06-25 07:53:19 51°18.666 2°54.834 69.4 9.7 67 9.3
2009-06-25 07:53:24 51°18.671 2°54.853 68 9.8 69 9.4
2009-06-25 07:53:29 51°18.676 2°54.874 68.3 9.7 66 9.3
2009-06-25 07:53:34 51°18.682 2°54.893 67.2 9.7 68 9.3
2009-06-25 07:53:39 51°18.687 2°54.913 67.5 9.7 66 9.4
2009-06-25 07:53:44 51°18.693 2°54.933 66.7 9.7 64 9.2
2009-06-25 07:53:49 51°18.698 2°54.952 66.1 9.7 66 9.6
2009-06-25 07:53:53 51°18.702 2°54.968 66.4 9.8 66 9.5
2009-06-25 07:53:59 51°18.71 2°54.991 65.4 9.8 63 9.5
2009-06-25 07:54:04 51°18.715 2°55.011 65.1 9.8 66 9.5
2009-06-25 07:54:09 51°18.721 2°55.03 64.6 9.8 62 9.4
2009-06-25 07:54:14 51°18.728 2°55.049 64 9.8 66 9.5
2009-06-25 07:54:19 51°18.733 2°55.069 65.1 9.8 63 9.6
2009-06-25 07:54:24 51°18.739 2°55.088 64.3 9.8 65 9.4
2009-06-25 07:54:29 51°18.745 2°55.108 65.1 9.8 64 9.2
2009-06-25 07:54:34 51°18.751 2°55.127 65.1 9.7 65 9.3
2009-06-25 07:54:39 51°18.757 2°55.147 65.5 9.8 65 9.3
2009-06-25 07:54:44 51°18.762 2°55.167 65.9 9.8 65 9.2
2009-06-25 07:54:49 51°18.768 2°55.186 65.5 9.8 65 9.3
2009-06-25 07:54:53 51°18.773 2°55.202 65.8 9.8 64 9.5
2009-06-25 07:54:59 51°18.78 2°55.225 65.4 9.8 65 9.3
2009-06-25 07:55:04 51°18.786 2°55.245 64.7 9.7 62 9.1
2009-06-25 07:55:09 51°18.792 2°55.264 64.2 9.7 63 9.3
2009-06-25 07:55:14 51°18.798 2°55.283 64.7 9.8 63 9.5
2009-06-25 07:55:19 51°18.804 2°55.303 64.4 9.8 64 9.4
2009-06-25 07:55:24 51°18.81 2°55.322 64.1 9.8 61 9.4
2009-06-25 07:55:29 51°18.816 2°55.341 63.8 9.8 65 9.5
2009-06-25 07:55:34 51°18.822 2°55.36 63.6 9.8 62 9.7
2009-06-25 07:55:39 51°18.828 2°55.38 63.5 9.7 64 9.3
2009-06-25 07:55:44 51°18.834 2°55.399 64 9.7 63 9.3
2009-06-25 07:55:49 51°18.841 2°55.418 63.5 9.7 63 9.5
2009-06-25 07:55:54 51°18.847 2°55.437 63.7 9.7 63 9.4
2009-06-25 07:55:59 51°18.853 2°55.456 63.5 9.6 62 9.1
2009-06-25 07:56:04 51°18.859 2°55.475 63.6 9.6 62 9
2009-06-25 07:56:09 51°18.865 2°55.493 63.7 9.6 63 9.2
2009-06-25 07:56:14 51°18.871 2°55.512 63.6 9.7 62 9.2
2009-06-25 07:56:19 51°18.877 2°55.532 63.9 9.7 63 9.2
2009-06-25 07:56:24 51°18.883 2°55.551 64 9.6 64 9.3
2009-06-25 07:56:29 51°18.889 2°55.57 64.7 9.6 64 9.2
2009-06-25 07:56:34 51°18.895 2°55.589 64.3 9.7 63 9.4
2009-06-25 07:56:39 51°18.901 2°55.608 63.7 9.7 63 9.2
2009-06-25 07:56:44 51°18.907 2°55.627 64.1 9.6 64 9.2
2009-06-25 07:56:49 51°18.913 2°55.646 64.4 9.6 63 9.1
2009-06-25 07:56:54 51°18.919 2°55.666 65.4 9.6 63 9
2009-06-25 07:56:59 51°18.925 2°55.684 64.2 9.6 63 9
2009-06-25 07:57:04 51°18.93 2°55.704 65 9.6 64 9.1
2009-06-25 07:57:09 51°18.937 2°55.723 64.8 9.7 63 9
2009-06-25 07:57:14 51°18.942 2°55.743 65.9 9.6 66 9
2009-06-25 07:57:19 51°18.948 2°55.762 65.7 9.7 65 9.1
2009-06-25 07:57:24 51°18.953 2°55.782 66.1 9.7 67 9.3
2009-06-25 07:57:29 51°18.959 2°55.801 66.5 9.7 66 9.2
2009-06-25 07:57:34 51°18.964 2°55.821 66.1 9.7 65 9.1
2009-06-25 07:57:39 51°18.97 2°55.84 66 9.7 66 9.2
2009-06-25 07:57:44 51°18.976 2°55.86 66.1 9.7 65 9.1
2009-06-25 07:57:49 51°18.981 2°55.879 66.7 9.7 66 9.1
2009-06-25 07:57:53 51°18.986 2°55.895 66.3 9.7 66 9.2
2009-06-25 07:57:59 51°18.992 2°55.918 66.4 9.7 65 9.1
2009-06-25 07:58:04 51°18.998 2°55.938 66 9.7 65 9.1
2009-06-25 07:58:09 51°19.004 2°55.957 65.7 9.7 65 9.5
2009-06-25 07:58:14 51°19.009 2°55.977 65.4 9.7 66 9.3
2009-06-25 07:58:19 51°19.015 2°55.996 65.7 9.7 65 9.3
2009-06-25 07:58:24 51°19.021 2°56.016 65.8 9.7 66 9.4
2009-06-25 07:58:29 51°19.026 2°56.035 65.9 9.7 66 9.3
2009-06-25 07:58:34 51°19.032 2°56.055 66.4 9.8 66 9.2
2009-06-25 07:58:39 51°19.038 2°56.074 65.9 9.7 65 9.2
2009-06-25 07:58:44 51°19.043 2°56.094 66.7 9.7 66 9.2
2009-06-25 07:58:49 51°19.049 2°56.114 66.2 9.8 65 9.2
2009-06-25 07:58:54 51°19.054 2°56.133 66.2 9.8 65 9.3
2009-06-25 07:58:59 51°19.06 2°56.153 65.7 9.7 65 9.3
2009-06-25 07:59:04 51°19.066 2°56.172 65.4 9.8 64 9.4
2009-06-25 07:59:09 51°19.072 2°56.191 65 9.7 64 9.4
2009-06-25 07:59:14 51°19.078 2°56.211 64.6 9.7 65 9.4
2009-06-25 07:59:19 51°19.084 2°56.23 64.6 9.7 63 9.2
2009-06-25 07:59:24 51°19.09 2°56.249 64.5 9.8 65 9.2
2009-06-25 07:59:29 51°19.095 2°56.269 64.7 9.8 65 9.4
2009-06-25 07:59:34 51°19.101 2°56.289 65.4 9.7 66 9
2009-06-25 07:59:39 51°19.107 2°56.308 65.4 9.7 65 9
2009-06-25 07:59:44 51°19.112 2°56.327 65.8 9.7 65 8.9
2009-06-25 07:59:49 51°19.118 2°56.347 65.9 9.7 66 9.1
2009-06-25 07:59:53 51°19.123 2°56.363 66.1 9.7 65 9
2009-06-25 07:59:59 51°19.129 2°56.386 66.4 9.7 66 8.9
2009-06-25 08:00:05 51°19.136 2°56.41 66.2 9.7 65 9
2009-06-25 08:00:09 51°19.141 2°56.425 66 9.7 65 9
2009-06-25 08:00:13 51°19.145 2°56.441 66.1 9.8 65 8.9
2009-06-25 08:00:19 51°19.152 2°56.465 66 9.8 65 8.9
2009-06-25 08:00:24 51°19.157 2°56.484 66.4 9.8 66 9.1
2009-06-25 08:00:29 51°19.163 2°56.504 66.1 9.8 66 9
2009-06-25 08:00:34 51°19.169 2°56.523 65.4 9.7 63 9
2009-06-25 08:00:39 51°19.175 2°56.543 64.8 9.7 64 8.9
2009-06-25 08:00:44 51°19.181 2°56.562 65 9.7 65 8.7
2009-06-25 08:00:49 51°19.186 2°56.582 65.6 9.7 66 9.1
2009-06-25 08:00:54 51°19.192 2°56.602 65.8 9.8 66 9
2009-06-25 08:00:59 51°19.197 2°56.622 66.1 9.8 65 9.1
2009-06-25 08:01:04 51°19.203 2°56.641 65.4 9.7 65 9
2009-06-25 08:01:09 51°19.209 2°56.661 65.8 9.7 66 8.9
2009-06-25 08:01:13 51°19.213 2°56.676 66.1 9.7 65 9
2009-06-25 08:01:19 51°19.22 2°56.7 66.1 9.7 66 8.9
2009-06-25 08:01:24 51°19.225 2°56.72 66.1 9.8 66 8.9
2009-06-25 08:01:29 51°19.231 2°56.74 66.1 9.8 66 8.9
2009-06-25 08:01:34 51°19.236 2°56.759 65.9 9.7 65 8.9
2009-06-25 08:01:39 51°19.242 2°56.779 66.1 9.8 66 9
2009-06-25 08:01:44 51°19.248 2°56.798 65.4 9.7 65 8.8
2009-06-25 08:01:49 51°19.253 2°56.818 65.9 9.8 66 8.8
2009-06-25 08:01:53 51°19.258 2°56.834 66 9.8 65 8.8
2009-06-25 08:01:59 51°19.264 2°56.858 65.9 9.7 66 8.8
2009-06-25 08:02:04 51°19.27 2°56.877 65.7 9.7 65 8.8
2009-06-25 08:02:09 51°19.275 2°56.897 66.1 9.8 68 8.8
2009-06-25 08:02:14 51°19.281 2°56.917 66 9.7 65 8.6
2009-06-25 08:02:19 51°19.287 2°56.936 65.8 9.7 65 8.8
2009-06-25 08:02:24 51°19.292 2°56.955 65.5 9.7 65 8.7
2009-06-25 08:02:29 51°19.298 2°56.975 65.7 9.7 65 8.9
2009-06-25 08:02:34 51°19.304 2°56.994 65.2 9.7 64 8.8
2009-06-25 08:02:39 51°19.309 2°57.014 65 9.7 65 8.6
2009-06-25 08:02:44 51°19.315 2°57.033 65.2 9.7 65 8.8
2009-06-25 08:02:49 51°19.32 2°57.052 65.5 9.4 65 8.6
2009-06-25 08:02:54 51°19.326 2°57.072 66.1 9.5 68 9
2009-06-25 08:02:59 51°19.331 2°57.091 66.1 9.5 64 8.8
2009-06-25 08:03:04 51°19.336 2°57.11 65.8 9.6 68 9
2009-06-25 08:03:09 51°19.342 2°57.129 65.7 9.5 64 8.9
2009-06-25 08:03:14 51°19.348 2°57.149 65.8 9.6 67 8.7
2009-06-25 08:03:19 51°19.353 2°57.168 66.2 9.7 66 8.9
2009-06-25 08:03:24 51°19.359 2°57.188 65.7 9.6 65 8.8
2009-06-25 08:03:29 51°19.364 2°57.207 65.4 9.6 66 8.9
2009-06-25 08:03:34 51°19.37 2°57.227 65.6 9.7 64 8.7
2009-06-25 08:03:39 51°19.375 2°57.246 65.1 9.7 66 8.6
2009-06-25 08:03:44 51°19.381 2°57.266 65.2 9.7 65 8.9
2009-06-25 08:03:49 51°19.387 2°57.285 65.1 9.7 65 8.6
2009-06-25 08:03:53 51°19.391 2°57.301 65.4 9.7 64 8.8
2009-06-25 08:03:59 51°19.398 2°57.324 64.8 9.8 66 8.7
2009-06-25 08:04:05 51°19.405 2°57.347 65.5 9.7 64 8.7
2009-06-25 08:04:09 51°19.409 2°57.363 65.1 9.7 65 8.6
2009-06-25 08:04:13 51°19.414 2°57.378 64.6 9.7 62 8.5
2009-06-25 08:04:19 51°19.421 2°57.401 64.2 9.7 65 8.5
2009-06-25 08:04:24 51°19.427 2°57.42 64.6 9.7 64 8.5
2009-06-25 08:04:29 51°19.433 2°57.44 64.7 9.6 65 8.3
2009-06-25 08:04:34 51°19.438 2°57.459 65.4 9.7 65 8.7
2009-06-25 08:04:39 51°19.444 2°57.478 64.9 9.6 65 8.5
2009-06-25 08:04:44 51°19.449 2°57.498 65.1 9.6 65 8.7
2009-06-25 08:04:49 51°19.455 2°57.517 65.6 9.7 66 8.9
2009-06-25 08:04:54 51°19.461 2°57.536 64.9 9.7 64 8.7
2009-06-25 08:04:59 51°19.466 2°57.556 65.4 9.7 66 8.8
2009-06-25 08:05:04 51°19.472 2°57.575 65.2 9.7 64 8.5
2009-06-25 08:05:09 51°19.478 2°57.594 64.8 9.7 64 8.6
2009-06-25 08:05:14 51°19.484 2°57.614 64.5 9.6 64 8.5
2009-06-25 08:05:19 51°19.49 2°57.633 64.1 9.7 63 8.6
2009-06-25 08:05:24 51°19.496 2°57.652 63.8 9.6 63 8.6
2009-06-25 08:05:29 51°19.502 2°57.671 64 9.7 65 8.6
2009-06-25 08:05:34 51°19.508 2°57.69 63.6 9.6 62 8.7
2009-06-25 08:05:39 51°19.514 2°57.709 63.5 9.6 64 8.6
2009-06-25 08:05:44 51°19.52 2°57.728 63.6 9.6 63 8.7
2009-06-25 08:05:49 51°19.526 2°57.747 63.9 9.6 64 8.7
2009-06-25 08:05:54 51°19.532 2°57.766 64 9.6 63 8.6
2009-06-25 08:05:59 51°19.537 2°57.785 64 9.6 64 8.7
2009-06-25 08:06:04 51°19.543 2°57.804 64.1 9.6 65 8.5
2009-06-25 08:06:09 51°19.549 2°57.824 65.2 9.7 65 8.6
2009-06-25 08:06:13 51°19.553 2°57.839 65.2 9.7 64 8.8
2009-06-25 08:06:19 51°19.56 2°57.862 65.3 9.6 66 8.8
2009-06-25 08:06:25 51°19.567 2°57.886 65.8 9.6 65 8.7
2009-06-25 08:06:29 51°19.571 2°57.901 65.8 9.6 65 8.4
2009-06-25 08:06:34 51°19.577 2°57.92 65.2 9.6 65 8.3
2009-06-25 08:06:39 51°19.582 2°57.939 65.3 9.6 64 8.4
2009-06-25 08:06:44 51°19.588 2°57.959 64.6 9.6 64 8.6
2009-06-25 08:06:49 51°19.594 2°57.977 64.4 9.5 63 8.4
2009-06-25 08:06:53 51°19.599 2°57.993 64 9.6 64 8.5
2009-06-25 08:06:59 51°19.606 2°58.015 63.4 9.6 62 8.5
2009-06-25 08:07:04 51°19.612 2°58.034 63.3 9.5 64 8.5
2009-06-25 08:07:09 51°19.618 2°58.053 64.1 9.5 62 8.3
2009-06-25 08:07:14 51°19.624 2°58.072 63.2 9.5 63 8.5
2009-06-25 08:07:19 51°19.63 2°58.091 64 9.5 64 8.6
2009-06-25 08:07:24 51°19.636 2°58.109 63.7 9.6 62 8.5
2009-06-25 08:07:29 51°19.641 2°58.128 63.7 9.5 65 8.4
2009-06-25 08:07:34 51°19.647 2°58.147 63.8 9.5 63 8.5
2009-06-25 08:07:39 51°19.653 2°58.166 64.4 9.5 64 8.8
2009-06-25 08:07:44 51°19.659 2°58.185 63.7 9.5 65 8.5
2009-06-25 08:07:49 51°19.665 2°58.204 64.6 9.6 64 8.4
2009-06-25 08:07:54 51°19.67 2°58.223 64.7 9.5 65 8.6
2009-06-25 08:07:59 51°19.676 2°58.242 64.5 9.5 64 8.6
2009-06-25 08:08:04 51°19.682 2°58.261 64.7 9.5 64 8.4
2009-06-25 08:08:09 51°19.688 2°58.28 64.2 9.5 64 8.4
2009-06-25 08:08:14 51°19.693 2°58.299 65.2 9.6 65 8.3
2009-06-25 08:08:19 51°19.699 2°58.318 64.8 9.5 64 8
2009-06-25 08:08:24 51°19.704 2°58.337 65.2 9.5 65 8.3
2009-06-25 08:08:29 51°19.71 2°58.357 65.4 9.5 65 8.3
2009-06-25 08:08:33 51°19.715 2°58.372 64.2 9.5 63 8.3
2009-06-25 08:08:39 51°19.722 2°58.395 64.4 9.5 65 8.2
2009-06-25 08:08:45 51°19.728 2°58.418 65.4 9.5 65 8.2
2009-06-25 08:08:49 51°19.733 2°58.433 65 9.6 65 8.2
2009-06-25 08:08:53 51°19.738 2°58.448 64.9 9.5 64 8.4
2009-06-25 08:08:59 51°19.744 2°58.471 65.3 9.6 65 8.4
2009-06-25 08:09:04 51°19.75 2°58.491 65.8 9.6 65 8.3
2009-06-25 08:09:09 51°19.755 2°58.51 65.6 9.6 65 8.3
2009-06-25 08:09:13 51°19.76 2°58.525 65.3 9.6 66 8.4
2009-06-25 08:09:19 51°19.767 2°58.548 65.7 9.6 65 8.5
2009-06-25 08:09:24 51°19.772 2°58.568 65 9.5 65 8.4
2009-06-25 08:09:29 51°19.777 2°58.587 65.8 9.6 67 8.6
2009-06-25 08:09:34 51°19.783 2°58.606 65.4 9.6 66 8.4
2009-06-25 08:09:39 51°19.789 2°58.626 66.4 9.6 66 7.9
2009-06-25 08:09:44 51°19.794 2°58.645 66.8 9.5 66 8
2009-06-25 08:09:49 51°19.8 2°58.664 65.4 9.6 64 8.2
2009-06-25 08:09:54 51°19.805 2°58.684 65.9 9.6 66 8
2009-06-25 08:09:59 51°19.81 2°58.703 66.6 9.6 66 8
2009-06-25 08:10:04 51°19.816 2°58.722 66 9.5 66 8.2
2009-06-25 08:10:09 51°19.821 2°58.742 66.6 9.6 67 8.4
2009-06-25 08:10:14 51°19.827 2°58.761 65.9 9.6 66 8.4
2009-06-25 08:10:19 51°19.832 2°58.781 66.8 9.5 66 8.2
2009-06-25 08:10:24 51°19.838 2°58.8 66.4 9.6 66 8.3
2009-06-25 08:10:29 51°19.843 2°58.819 66.1 9.6 66 8.1
2009-06-25 08:10:34 51°19.849 2°58.838 65.7 9.5 65 8.3
2009-06-25 08:10:39 51°19.854 2°58.857 65.2 9.6 65 8.5
2009-06-25 08:10:44 51°19.86 2°58.877 64.6 9.7 64 8.5
2009-06-25 08:10:49 51°19.866 2°58.896 64.7 9.6 66 8.4
2009-06-25 08:10:54 51°19.871 2°58.916 65.9 9.6 66 8.3
2009-06-25 08:10:59 51°19.877 2°58.934 65.4 9.5 65 8.1
2009-06-25 08:11:04 51°19.882 2°58.954 66.5 9.6 66 8.3
2009-06-25 08:11:09 51°19.888 2°58.973 65.6 9.6 64 8
2009-06-25 08:11:14 51°19.893 2°58.993 66.1 9.5 67 8.4
2009-06-25 08:11:19 51°19.899 2°59.012 66 9.5 65 8.2
2009-06-25 08:11:24 51°19.904 2°59.031 66.1 9.5 65 8.2
2009-06-25 08:11:29 51°19.91 2°59.05 65.8 9.5 65 8.4
2009-06-25 08:11:34 51°19.915 2°59.069 65.9 9.5 66 8.1
2009-06-25 08:11:39 51°19.921 2°59.088 66.1 9.5 66 8
2009-06-25 08:11:44 51°19.926 2°59.108 66.9 9.6 67 8.2
2009-06-25 08:11:49 51°19.931 2°59.127 66.9 9.6 66 8.4
2009-06-25 08:11:54 51°19.937 2°59.147 66.9 9.6 67 8.2
2009-06-25 08:11:59 51°19.942 2°59.166 66.8 9.6 65 8.3
2009-06-25 08:12:04 51°19.947 2°59.186 66.4 9.6 66 8.2
2009-06-25 08:12:09 51°19.953 2°59.205 66.5 9.6 66 8.2
2009-06-25 08:12:14 51°19.958 2°59.224 66.1 9.5 66 8.1
2009-06-25 08:12:19 51°19.964 2°59.244 66.7 9.6 66 8.2
2009-06-25 08:12:24 51°19.969 2°59.263 66.3 9.5 66 7.9
2009-06-25 08:12:29 51°19.974 2°59.282 66.2 9.5 66 8.3
2009-06-25 08:12:33 51°19.979 2°59.297 65.6 9.6 66 8.3
2009-06-25 08:12:39 51°19.986 2°59.32 65.4 9.6 64 8
2009-06-25 08:12:44 51°19.991 2°59.34 66.3 9.6 65 8.1
2009-06-25 08:12:49 51°19.997 2°59.359 65.7 9.5 64 8
2009-06-25 08:12:53 51°20.001 2°59.374 65.7 9.5 64 8.3
2009-06-25 08:12:59 51°20.008 2°59.397 65.3 9.5 64 8.3
2009-06-25 08:13:04 51°20.014 2°59.415 64.6 9.5 63 8.1
2009-06-25 08:13:09 51°20.02 2°59.434 64.3 9.5 63 8.3
2009-06-25 08:13:13 51°20.025 2°59.449 64.1 9.5 62 8.3
2009-06-25 08:13:19 51°20.032 2°59.472 63.5 9.5 64 8.1
2009-06-25 08:13:24 51°20.038 2°59.49 63.8 9.5 63 8.2
2009-06-25 08:13:29 51°20.044 2°59.509 64.2 9.5 64 8.5
2009-06-25 08:13:34 51°20.05 2°59.528 64.5 9.6 65 8.5
2009-06-25 08:13:39 51°20.055 2°59.547 65 9.5 64 8.4
2009-06-25 08:13:44 51°20.061 2°59.567 65.2 9.5 65 8.1
2009-06-25 08:13:49 51°20.066 2°59.586 65.8 9.5 65 8.3
2009-06-25 08:13:54 51°20.072 2°59.605 66.1 9.5 66 8.2
2009-06-25 08:13:59 51°20.077 2°59.624 66 9.5 66 8.5
2009-06-25 08:14:04 51°20.082 2°59.643 66.4 9.5 66 8.5
2009-06-25 08:14:09 51°20.088 2°59.662 65.8 9.5 64 8.5
2009-06-25 08:14:14 51°20.094 2°59.682 66.1 9.5 65 8.3
2009-06-25 08:14:19 51°20.099 2°59.701 65.9 9.5 66 8.3
2009-06-25 08:14:24 51°20.105 2°59.72 66 9.5 65 8.2
2009-06-25 08:14:29 51°20.11 2°59.739 66.4 9.5 66 8.3
2009-06-25 08:14:34 51°20.115 2°59.758 66.1 9.5 65 8.4
2009-06-25 08:14:39 51°20.121 2°59.777 66 9.5 66 8.6
2009-06-25 08:14:44 51°20.127 2°59.796 65.8 9.5 64 8.7
2009-06-25 08:14:49 51°20.132 2°59.815 65.4 9.5 64 8.3
2009-06-25 08:14:54 51°20.138 2°59.834 64.3 9.4 62 8.2
2009-06-25 08:14:59 51°20.144 2°59.853 64 9.5 65 8.6
2009-06-25 08:15:04 51°20.15 2°59.871 64.3 9.5 62 8.6
2009-06-25 08:15:09 51°20.155 2°59.89 64.9 9.4 66 8.6
2009-06-25 08:15:14 51°20.162 2°59.909 64.7 9.5 63 8.5
2009-06-25 08:15:19 51°20.167 2°59.928 64.9 9.5 65 8.4
2009-06-25 08:15:24 51°20.173 2°59.947 64.8 9.5 64 8.6
2009-06-25 08:15:29 51°20.179 2°59.966 64.7 9.5 64 8.3
2009-06-25 08:15:33 51°20.183 2°59.981 64.9 9.5 64 8.3
2009-06-25 08:15:39 51°20.19 3°0.003 65.1 9.4 63 8.3
2009-06-25 08:15:45 51°20.197 3°0.026 64.3 9.5 63 8.5
2009-06-25 08:15:49 51°20.202 3°0.041 64.7 9.5 65 8.3
2009-06-25 08:15:53 51°20.207 3°0.056 64.4 9.5 63 8.5
2009-06-25 08:15:59 51°20.213 3°0.078 64.2 9.5 65 8.7
2009-06-25 08:16:04 51°20.22 3°0.097 64.6 9.5 63 8.4
2009-06-25 08:16:09 51°20.225 3°0.116 65 9.5 66 8.4
2009-06-25 08:16:13 51°20.229 3°0.132 65.7 9.6 64 8.4
2009-06-25 08:16:19 51°20.236 3°0.155 65.5 9.6 66 8.3
2009-06-25 08:16:24 51°20.242 3°0.174 66.1 9.5 65 8.3
2009-06-25 08:16:29 51°20.247 3°0.194 66.2 9.6 67 8.7
2009-06-25 08:16:34 51°20.252 3°0.213 66.5 9.6 65 8.6
2009-06-25 08:16:39 51°20.258 3°0.232 66.1 9.6 65 8.6
2009-06-25 08:16:44 51°20.263 3°0.251 65.5 9.6 66 8.6
2009-06-25 08:16:49 51°20.269 3°0.271 66.1 9.6 65 8.5
2009-06-25 08:16:54 51°20.274 3°0.29 65.6 9.6 67 8.6
2009-06-25 08:16:59 51°20.28 3°0.309 66.2 9.6 64 8.7
2009-06-25 08:17:04 51°20.286 3°0.328 65.8 9.6 65 8.2
2009-06-25 08:17:09 51°20.291 3°0.348 65.6 9.5 65 8.3
2009-06-25 08:17:14 51°20.297 3°0.367 65.6 9.6 66 8.7
2009-06-25 08:17:19 51°20.302 3°0.386 65.9 9.6 65 8.4
2009-06-25 08:17:24 51°20.308 3°0.405 65.5 9.6 65 8.5
2009-06-25 08:17:29 51°20.314 3°0.424 65.6 9.5 65 8.5
2009-06-25 08:17:34 51°20.319 3°0.444 66.1 9.5 65 8.3
2009-06-25 08:17:39 51°20.325 3°0.462 65.4 9.5 64 8.4
2009-06-25 08:17:44 51°20.331 3°0.481 64.6 9.4 64 8.3
2009-06-25 08:17:49 51°20.337 3°0.5 64.5 9.4 64 8.4
2009-06-25 08:17:54 51°20.343 3°0.519 64.6 9.5 63 8.6
2009-06-25 08:17:59 51°20.349 3°0.537 64 9.5 62 8.7
2009-06-25 08:18:05 51°20.356 3°0.56 63.7 9.5 64 8.5
2009-06-25 08:18:09 51°20.36 3°0.575 64.2 9.6 63 8.4
2009-06-25 08:18:13 51°20.365 3°0.59 64.6 9.4 65 8.3
2009-06-25 08:18:19 51°20.372 3°0.613 65.1 9.4 64 8.4
2009-06-25 08:18:24 51°20.377 3°0.632 65.6 9.6 67 8.7
2009-06-25 08:18:29 51°20.383 3°0.651 65.6 9.5 63 8.5
2009-06-25 08:18:34 51°20.388 3°0.67 65.6 9.5 66 8.2
2009-06-25 08:18:39 51°20.394 3°0.689 65.7 9.5 65 8.5
2009-06-25 08:18:44 51°20.399 3°0.708 65.4 9.4 65 8.2
2009-06-25 08:18:49 51°20.405 3°0.727 66 9.5 66 8.5
2009-06-25 08:18:53 51°20.409 3°0.742 65.9 9.5 63 8.6
2009-06-25 08:18:59 51°20.415 3°0.765 65.8 9.5 67 8.6
2009-06-25 08:19:04 51°20.421 3°0.784 65.7 9.4 64 8.2
2009-06-25 08:19:09 51°20.426 3°0.804 66.5 9.4 68 8
2009-06-25 08:19:14 51°20.432 3°0.822 66.6 9.4 66 8.9
2009-06-25 08:19:19 51°20.437 3°0.841 66.4 9.4 66 8.8
2009-06-25 08:19:24 51°20.442 3°0.86 65.7 9.3 64 8.3
2009-06-25 08:19:29 51°20.448 3°0.879 64.6 9.3 64 8.3
2009-06-25 08:19:34 51°20.454 3°0.897 64.4 9.4 64 8.7
2009-06-25 08:19:39 51°20.46 3°0.916 64.7 9.4 64 8.4
2009-06-25 08:19:44 51°20.466 3°0.934 64.2 9.4 63 8.4
2009-06-25 08:19:49 51°20.471 3°0.953 64.1 9.4 63 8.5
2009-06-25 08:19:54 51°20.477 3°0.971 64 9.4 64 8.9
2009-06-25 08:19:59 51°20.483 3°0.99 65 9.4 66 8.9
2009-06-25 08:20:04 51°20.489 3°1.009 65.1 9.4 63 8.5
2009-06-25 08:20:09 51°20.494 3°1.028 64 9.4 64 8.4
2009-06-25 08:20:14 51°20.5 3°1.046 64.4 9.4 65 8.5
2009-06-25 08:20:19 51°20.506 3°1.065 64.8 9.4 65 8.5
2009-06-25 08:20:25 51°20.512 3°1.088 65.4 9.5 65 8.7
2009-06-25 08:20:29 51°20.517 3°1.103 65.6 9.5 65 8.5
2009-06-25 08:20:34 51°20.522 3°1.122 65.9 9.5 65 8.5
2009-06-25 08:20:39 51°20.528 3°1.141 66 9.5 66 8.4
2009-06-25 08:20:44 51°20.533 3°1.161 66.2 9.5 66 8.7
2009-06-25 08:20:49 51°20.538 3°1.18 66.1 9.5 66 8.5
2009-06-25 08:20:53 51°20.543 3°1.195 66.6 9.6 66 8.5
2009-06-25 08:20:59 51°20.55 3°1.218 66.1 9.5 66 8.4
2009-06-25 08:21:04 51°20.555 3°1.238 66.4 9.5 66 8.4
2009-06-25 08:21:09 51°20.56 3°1.257 66.4 9.5 66 8.4
2009-06-25 08:21:13 51°20.565 3°1.272 66.1 9.5 64 8.6
2009-06-25 08:21:19 51°20.571 3°1.295 65.8 9.5 68 8.3
2009-06-25 08:21:24 51°20.576 3°1.314 66.2 9.5 65 8.5
2009-06-25 08:21:29 51°20.58 3°1.334 69 9.4 74 8.6
2009-06-25 08:21:34 51°20.584 3°1.354 71.9 9.4 71 8.5
2009-06-25 08:21:39 51°20.587 3°1.375 73.8 9.4 79 8.3
2009-06-25 08:21:44 51°20.589 3°1.395 75 9.4 76 8.1
2009-06-25 08:21:49 51°20.592 3°1.416 76.3 9.3 79 8.4
2009-06-25 08:21:54 51°20.594 3°1.436 77.2 9.4 81 8.7
2009-06-25 08:21:59 51°20.596 3°1.457 78.3 9.4 81 8.5
2009-06-25 08:22:04 51°20.598 3°1.477 78.5 9.5 81 8.6
2009-06-25 08:22:09 51°20.599 3°1.498 79.3 9.4 84 8.5
2009-06-25 08:22:14 51°20.601 3°1.519 80.8 9.4 80 8.2
2009-06-25 08:22:19 51°20.602 3°1.539 80 9.4 85 8.3
2009-06-25 08:22:24 51°20.604 3°1.56 80.7 9.5 82 8.4
2009-06-25 08:22:29 51°20.605 3°1.581 80.7 9.4 84 8.5
2009-06-25 08:22:34 51°20.607 3°1.602 80.8 9.5 83 8.5
2009-06-25 08:22:39 51°20.608 3°1.623 80.9 9.5 84 8.5
2009-06-25 08:22:45 51°20.61 3°1.648 80.7 9.5 84 8.4
2009-06-25 08:22:49 51°20.611 3°1.665 80.7 9.5 84 8.5
2009-06-25 08:22:54 51°20.612 3°1.686 81.7 9.5 85 8.4
2009-06-25 08:22:59 51°20.613 3°1.707 81.7 9.5 86 8.2
2009-06-25 08:23:04 51°20.614 3°1.728 82.3 9.6 86 8.3
2009-06-25 08:23:09 51°20.615 3°1.749 82.7 9.5 85 8.1
2009-06-25 08:23:13 51°20.616 3°1.766 83 9.7 86 8.2
2009-06-25 08:23:19 51°20.617 3°1.792 82.3 9.6 86 8.4
2009-06-25 08:23:24 51°20.618 3°1.813 83.1 9.6 86 8.2
2009-06-25 08:23:29 51°20.619 3°1.834 83.1 9.6 86 8.4
2009-06-25 08:23:34 51°20.62 3°1.855 82.6 9.6 84 8.3
2009-06-25 08:23:39 51°20.621 3°1.876 82.8 9.6 86 8.4
2009-06-25 08:23:44 51°20.622 3°1.897 82.5 9.5 85 8.2
2009-06-25 08:23:49 51°20.623 3°1.918 82.8 9.6 86 8.3
2009-06-25 08:23:54 51°20.625 3°1.939 81.5 9.5 84 8.2
2009-06-25 08:23:59 51°20.625 3°1.96 82.3 9.6 86 8.2
2009-06-25 08:24:04 51°20.627 3°1.982 82.4 9.6 83 8.3
2009-06-25 08:24:09 51°20.629 3°2.003 80.6 9.6 82 7.9
2009-06-25 08:24:14 51°20.63 3°2.023 81.4 9.5 84 8
2009-06-25 08:24:19 51°20.631 3°2.044 80.7 9.5 84 8.4
2009-06-25 08:24:24 51°20.632 3°2.065 81.3 9.5 85 8.3
2009-06-25 08:24:29 51°20.634 3°2.086 81.7 9.5 83 8.1
2009-06-25 08:24:34 51°20.635 3°2.107 80.9 9.5 82 8
2009-06-25 08:24:39 51°20.637 3°2.128 79.9 9.5 83 8
2009-06-25 08:24:44 51°20.638 3°2.149 81.2 9.6 84 8
2009-06-25 08:24:49 51°20.64 3°2.17 80.5 9.5 82 7.9
2009-06-25 08:24:54 51°20.641 3°2.191 81.1 9.6 83 8
2009-06-25 08:24:59 51°20.644 3°2.212 80.3 9.4 82 7.7
2009-06-25 08:25:05 51°20.645 3°2.237 81.6 9.6 85 8.3
2009-06-25 08:25:09 51°20.646 3°2.254 80.3 9.5 82 8.2
2009-06-25 08:25:14 51°20.647 3°2.275 81 9.6 83 8
2009-06-25 08:25:19 51°20.65 3°2.295 79.9 9.4 81 8
2009-06-25 08:25:24 51°20.651 3°2.316 80.2 9.5 83 8.1
2009-06-25 08:25:29 51°20.654 3°2.337 79.1 9.5 81 8.1
2009-06-25 08:25:34 51°20.655 3°2.358 79.9 9.5 82 8.1
2009-06-25 08:25:39 51°20.657 3°2.379 80.1 9.5 83 8.1
2009-06-25 08:25:44 51°20.658 3°2.4 79.9 9.5 81 8
2009-06-25 08:25:49 51°20.66 3°2.421 79.8 9.5 83 8
2009-06-25 08:25:53 51°20.662 3°2.437 79.5 9.5 80 7.9
2009-06-25 08:25:59 51°20.664 3°2.462 79.3 9.5 82 7.7
2009-06-25 08:26:04 51°20.666 3°2.483 79.7 9.6 81 7.8
2009-06-25 08:26:09 51°20.668 3°2.504 79.1 9.5 81 7.7
2009-06-25 08:26:14 51°20.669 3°2.525 80.5 9.5 84 7.9
2009-06-25 08:26:19 51°20.671 3°2.546 80.7 9.5 82 7.9
2009-06-25 08:26:24 51°20.673 3°2.567 80.6 9.6 84 7.9
2009-06-25 08:26:29 51°20.675 3°2.588 80.5 9.5 82 7.7
2009-06-25 08:26:34 51°20.676 3°2.609 81 9.6 84 7.6
2009-06-25 08:26:39 51°20.677 3°2.63 81.1 9.6 83 7.9
2009-06-25 08:26:44 51°20.679 3°2.651 81 9.6 84 7.9
2009-06-25 08:26:49 51°20.68 3°2.672 80.8 9.6 84 7.9
2009-06-25 08:26:54 51°20.681 3°2.693 81.7 9.6 84 7.9
2009-06-25 08:26:59 51°20.683 3°2.714 80.9 9.5 85 7.9
2009-06-25 08:27:04 51°20.684 3°2.735 81.9 9.5 83 7.7
2009-06-25 08:27:09 51°20.685 3°2.756 80.7 9.4 83 7.9
2009-06-25 08:27:14 51°20.687 3°2.777 79.8 9.5 83 7.7
2009-06-25 08:27:19 51°20.689 3°2.798 80.3 9.5 81 7.6
2009-06-25 08:27:24 51°20.69 3°2.818 79.9 9.5 85 7.9
2009-06-25 08:27:29 51°20.693 3°2.839 78.9 9.4 80 7.8
2009-06-25 08:27:34 51°20.694 3°2.859 79.7 9.4 84 7.8
2009-06-25 08:27:39 51°20.696 3°2.88 79.8 9.5 82 7.9
2009-06-25 08:27:44 51°20.697 3°2.901 79.9 9.4 83 7.5
2009-06-25 08:27:49 51°20.698 3°2.922 81.2 9.5 84 7.6
2009-06-25 08:27:53 51°20.7 3°2.938 80.6 9.4 83 7.6
2009-06-25 08:27:59 51°20.701 3°2.963 81 9.4 85 7.7
2009-06-25 08:28:04 51°20.702 3°2.984 81.3 9.5 83 7.7
2009-06-25 08:28:09 51°20.704 3°3.005 80.8 9.4 84 7.6
2009-06-25 08:28:14 51°20.704 3°3.026 82.1 9.5 86 7.6
2009-06-25 08:28:19 51°20.706 3°3.046 81.2 9.4 83 7.7
2009-06-25 08:28:24 51°20.707 3°3.067 81.6 9.4 87 5.6
2009-06-25 08:28:29 51°20.708 3°3.088 82.1 9.5 84 7.6
2009-06-25 08:28:34 51°20.709 3°3.109 81.3 9.4 86 7.6
2009-06-25 08:28:39 51°20.71 3°3.13 82.2 9.4 85 7.4
2009-06-25 08:28:44 51°20.712 3°3.15 80.7 9.4 83 7.4
2009-06-25 08:28:49 51°20.712 3°3.171 81.9 9.4 87 7.4
2009-06-25 08:28:53 51°20.714 3°3.188 81.6 9.4 84 7.7
2009-06-25 08:28:59 51°20.716 3°3.212 79.9 9.3 79 7.4
2009-06-25 08:29:05 51°20.718 3°3.237 79.5 9.3 84 7.5
2009-06-25 08:29:09 51°20.72 3°3.253 79.2 9.4 82 7.6
2009-06-25 08:29:14 51°20.722 3°3.273 77.7 9.3 79 7.5
2009-06-25 08:29:20 51°20.724 3°3.298 77.8 9.3 81 7.6
2009-06-25 08:29:24 51°20.727 3°3.314 77.4 9.4 80 7.7
2009-06-25 08:29:29 51°20.73 3°3.335 76.1 9.4 76 7.6
2009-06-25 08:29:34 51°20.732 3°3.355 76.4 9.4 81 7.5
2009-06-25 08:29:39 51°20.734 3°3.375 76.6 9.4 76 5.6
2009-06-25 08:29:44 51°20.737 3°3.396 75.3 9.4 80 7.8
2009-06-25 08:29:49 51°20.74 3°3.416 75.2 9.3 77 7.7
2009-06-25 08:29:54 51°20.743 3°3.436 75 9.3 77 -999
2009-06-25 08:29:59 51°20.746 3°3.456 74.8 9.4 76 7.7
2009-06-25 08:30:04 51°20.749 3°3.476 74.5 9.3 78 7.9
2009-06-25 08:30:09 51°20.752 3°3.496 74.7 9.3 77 7.6
2009-06-25 08:30:13 51°20.754 3°3.513 75.6 9.3 77 7.6
2009-06-25 08:30:19 51°20.758 3°3.537 74.5 9.3 78 7.6
2009-06-25 08:30:24 51°20.76 3°3.557 75.4 9.3 79 7.9
2009-06-25 08:30:29 51°20.763 3°3.577 75 9.3 77 -999
2009-06-25 08:30:34 51°20.765 3°3.597 75.4 9.3 77 7.8
2009-06-25 08:30:39 51°20.769 3°3.617 74.7 9.2 78 7.6
2009-06-25 08:30:44 51°20.771 3°3.637 75 9.3 78 7.6
2009-06-25 08:30:49 51°20.774 3°3.657 74.8 9.3 77 7.7
2009-06-25 08:30:54 51°20.777 3°3.678 74.4 9.3 78 7.7
2009-06-25 08:30:59 51°20.779 3°3.698 75 9.3 78 7.7
2009-06-25 08:31:04 51°20.782 3°3.718 74.8 9.3 79 7.5
2009-06-25 08:31:09 51°20.785 3°3.738 75.2 9.3 77 7.6
2009-06-25 08:31:14 51°20.787 3°3.758 74.5 9.3 78 7.7
2009-06-25 08:31:19 51°20.79 3°3.778 74.1 9.4 75 7.8
2009-06-25 08:31:25 51°20.794 3°3.803 73.6 9.3 78 8.1
2009-06-25 08:31:29 51°20.797 3°3.819 73.2 9.3 76 7.9
2009-06-25 08:31:34 51°20.8 3°3.839 73.4 9.3 75 7.8
2009-06-25 08:31:39 51°20.803 3°3.859 72.9 9.4 77 7.9
2009-06-25 08:31:44 51°20.806 3°3.879 73.5 9.4 75 7.9
2009-06-25 08:31:49 51°20.808 3°3.899 73.8 9.4 78 7.9
2009-06-25 08:31:53 51°20.811 3°3.915 74.2 9.4 77 7.7
2009-06-25 08:31:59 51°20.814 3°3.94 74.8 9.5 78 7.7
2009-06-25 08:32:04 51°20.817 3°3.961 75.2 9.5 78 7.7